Time;durP1;ratioP1;P1;durP2;ratioP2;P2;SDS_P1;SDS_P2;PMS_P1;PMS_P2;Temp;Humidity;BMP_temperature;BMP_pressure;BME280_temperature;BME280_humidity;BME280_pressure;Samples;Min_cycle;Max_cycle;Signal;HPM_P1;HPM_P2
2022/07/08 00:00:00;;;;;;;;;;;;;;;;;;348618;28;968;-81
2022/07/08 00:00:12;;;;;;;;;;;;;;;;;;348566;28;869;-81
2022/07/08 00:00:22;;;;;;;;;;;;;;;;;;348584;28;1008;-81
2022/07/08 00:00:33;;;;;;;;;;;;;;;;;;348577;28;837;-81
2022/07/08 00:00:43;;;;;;;;;;;;;;;;;;348541;28;790;-81
2022/07/08 00:00:54;;;;;;;;;;;;;;;;;;348577;28;770;-81
2022/07/08 00:01:04;;;;;;;;;;;;;;;;;;348608;28;808;-81
2022/07/08 00:01:15;;;;;;;;;;;;;;;;;;348517;28;822;-81
2022/07/08 00:01:25;;;;;;;;;;;;;;;;;;348648;28;869;-81
2022/07/08 00:01:36;;;;;;;;;;;;;;;;;;348590;28;857;-81
2022/07/08 00:01:46;;;;;;;;;;;;;;;;;;348550;28;838;-81
2022/07/08 00:01:58;;;;;;;;;;;;;;;;;;348610;28;798;-81
2022/07/08 00:02:09;;;;;;;;;;;;;;;;;;348568;28;885;-81
2022/07/08 00:02:20;;;;;;;;;;;;;;;;;;348521;28;834;-81
2022/07/08 00:02:30;;;;;;;;;;;;;;;;;;348446;28;1234;-80
2022/07/08 00:02:41;;;;;;;;;;;;;;;;;;348570;28;854;-81
2022/07/08 00:02:52;;;;;;;;;;;;;;;;;;348581;28;853;-81
2022/07/08 00:03:02;;;;;;;;;;;;;;;;;;348617;28;790;-81
2022/07/08 00:03:14;;;;;;;;;;;;;;;;;;348620;28;869;-81
2022/07/08 00:03:25;;;;;;;;;;;;;;;;;;348523;28;838;-81
2022/07/08 00:03:35;;;;;;;;;;;;;;;;;;348585;28;808;-81
2022/07/08 00:03:46;;;;;;;;;;;;;;;;;;348511;28;881;-81
2022/07/08 00:03:56;;;;;;;;;;;;;;;;;;348590;28;865;-81
2022/07/08 00:04:08;;;;;;;;;;;;;;;;;;348585;28;810;-81
2022/07/08 00:04:18;;;;;;;;;;;;;;;;;;348575;28;822;-81
2022/07/08 00:04:29;;;;;;;;;;;;;;;;;;348545;28;900;-81
2022/07/08 00:04:40;;;;;;;;;;;;;;;;;;348601;28;805;-81
2022/07/08 00:04:51;;;;;;;;;;;;;;;;;;348535;28;852;-81
2022/07/08 00:05:01;;;;;;;;;;;;;;;;;;348558;28;805;-81
2022/07/08 00:05:13;;;;;;;;;;;;;;;;;;348574;28;881;-81
2022/07/08 00:05:24;;;;;;;;;;;;;;;;;;348578;28;853;-81
2022/07/08 00:05:34;;;;;;;;;;;;;;;;;;348517;28;888;-81
2022/07/08 00:05:45;;;;;;;;;;;;;;;;;;348532;28;921;-81
2022/07/08 00:05:55;;;;;;;;;;;;;;;;;;348603;28;802;-81
2022/07/08 00:06:06;;;;;;;;;;;;;;;;;;348559;28;897;-81
2022/07/08 00:06:16;;;;;;;;;;;;;;;;;;348582;28;818;-81
2022/07/08 00:06:26;;;;;;;;;;;;;;;;;;348509;28;1323;-81
2022/07/08 00:06:36;;;;;;;;;;;;;;;;;;349895;28;904;-81
2022/07/08 00:06:47;;;;;;;;;;;;;;;;;;349940;28;917;-81
2022/07/08 00:06:57;;;;;;;;;;;;;;;;;;349986;28;953;-81
2022/07/08 00:07:07;;;;;;;;;;;;;;;;;;349891;28;968;-81
2022/07/08 00:07:17;;;;;;;;;;;;;;;;;;349981;28;853;-81
2022/07/08 00:07:28;;;;;;;;;;;;;;;;;;349654;28;1460;-82
2022/07/08 00:07:38;;;;;;;;;;;;;;;;;;349782;28;1473;-81
2022/07/08 00:07:49;;;;;;;;;;;;;;;;;;349931;28;881;-81
2022/07/08 00:07:59;;;;;;;;;;;;;;;;;;349907;28;857;-81
2022/07/08 00:08:09;;;;;;;;;;;;;;;;;;349929;28;960;-81
2022/07/08 00:08:20;;;;;;;;;;;;;;;;;;349963;28;790;-81
2022/07/08 00:08:31;;;;;;;;;;;;;;;;;;349254;28;1809;-81
2022/07/08 00:08:41;;;;;;;;;;;;;;;;;;348961;28;1724;-81
2022/07/08 00:08:51;;;;;;;;;;;;;;;;;;349971;28;829;-81
2022/07/08 00:09:02;;;;;;;;;;;;;;;;;;349950;28;822;-81
2022/07/08 00:09:13;;;;;;;;;;;;;;;;;;349958;28;917;-81
2022/07/08 00:09:23;;;;;;;;;;;;;;;;;;349950;28;980;-81
2022/07/08 00:09:34;;;;;;;;;;;;;;;;;;349999;28;786;-81
2022/07/08 00:09:44;;;;;;;;;;;;;;;;;;349913;28;905;-81
2022/07/08 00:09:54;;;;;;;;;;;;;;;;;;349872;28;1035;-81
2022/07/08 00:10:05;;;;;;;;;;;;;;;;;;349943;28;805;-81
2022/07/08 00:10:15;;;;;;;;;;;;;;;;;;349957;28;955;-81
2022/07/08 00:10:26;;;;;;;;;;;;;;;;;;349877;28;786;-81
2022/07/08 00:10:36;;;;;;;;;;;;;;;;;;349900;28;932;-81
2022/07/08 00:10:46;;;;;;;;;;;;;;;;;;349934;28;862;-81
2022/07/08 00:10:57;;;;;;;;;;;;;;;;;;349847;28;1125;-81
2022/07/08 00:11:07;;;;;;;;;;;;;;;;;;349848;28;1206;-81
2022/07/08 00:11:18;;;;;;;;;;;;;;;;;;349852;28;1018;-81
2022/07/08 00:11:28;;;;;;;;;;;;;;;;;;349877;28;1004;-81
2022/07/08 00:11:40;;;;;;;;;;;;;;;;;;349967;28;810;-81
2022/07/08 00:11:51;;;;;;;;;;;;;;;;;;350000;28;908;-81
2022/07/08 00:12:02;;;;;;;;;;;;;;;;;;349887;28;805;-81
2022/07/08 00:12:12;;;;;;;;;;;;;;;;;;350009;28;810;-81
2022/07/08 00:12:23;;;;;;;;;;;;;;;;;;349885;28;830;-81
2022/07/08 00:12:33;;;;;;;;;;;;;;;;;;349788;28;1813;-81
2022/07/08 00:12:44;;;;;;;;;;;;;;;;;;348606;28;1298;-81
2022/07/08 00:12:54;;;;;;;;;;;;;;;;;;348629;28;870;-81
2022/07/08 00:13:05;;;;;;;;;;;;;;;;;;348502;28;809;-81
2022/07/08 00:13:15;;;;;;;;;;;;;;;;;;348677;28;856;-81
2022/07/08 00:13:25;;;;;;;;;;;;;;;;;;348846;28;972;-81
2022/07/08 00:13:36;;;;;;;;;;;;;;;;;;348864;28;842;-81
2022/07/08 00:13:46;;;;;;;;;;;;;;;;;;348898;28;820;-81
2022/07/08 00:13:57;;;;;;;;;;;;;;;;;;349076;28;801;-81
2022/07/08 00:14:08;;;;;;;;;;;;;;;;;;349022;28;825;-81
2022/07/08 00:14:19;;;;;;;;;;;;;;;;;;349029;28;828;-81
2022/07/08 00:14:30;;;;;;;;;;;;;;;;;;348986;28;810;-81
2022/07/08 00:14:40;;;;;;;;;;;;;;;;;;349079;28;797;-81
2022/07/08 00:14:51;;;;;;;;;;;;;;;;;;349033;28;821;-81
2022/07/08 00:15:03;;;;;;;;;;;;;;;;;;349052;28;821;-81
2022/07/08 00:15:13;;;;;;;;;;;;;;;;;;349029;28;786;-81
2022/07/08 00:15:24;;;;;;;;;;;;;;;;;;349047;28;805;-82
2022/07/08 00:15:35;;;;;;;;;;;;;;;;;;348999;28;801;-81
2022/07/08 00:15:45;;;;;;;;;;;;;;;;;;349076;28;880;-81
2022/07/08 00:15:56;;;;;;;;;;;;;;;;;;349049;28;778;-81
2022/07/08 00:16:07;;;;;;;;;;;;;;;;;;349048;28;853;-81
2022/07/08 00:16:17;;;;;;;;;;;;;;;;;;349014;28;797;-81
2022/07/08 00:16:28;;;;;;;;;;;;;;;;;;349035;28;901;-81
2022/07/08 00:16:40;;;;;;;;;;;;;;;;;;348995;28;821;-81
2022/07/08 00:16:50;;;;;;;;;;;;;;;;;;349048;28;880;-81
2022/07/08 00:17:02;;;;;;;;;;;;;;;;;;349076;28;814;-81
2022/07/08 00:17:12;;;;;;;;;;;;;;;;;;349026;28;801;-81
2022/07/08 00:17:24;;;;;;;;;;;;;;;;;;348994;28;797;-81
2022/07/08 00:17:35;;;;;;;;;;;;;;;;;;348993;28;796;-81
2022/07/08 00:17:45;;;;;;;;;;;;;;;;;;349025;28;861;-81
2022/07/08 00:17:57;;;;;;;;;;;;;;;;;;349046;28;889;-81
2022/07/08 00:18:08;;;;;;;;;;;;;;;;;;349110;28;1230;-81
2022/07/08 00:18:18;;;;;;;;;;;;;;;;;;350342;28;829;-81
2022/07/08 00:18:29;;;;;;;;;;;;;;;;;;350272;28;1905;-81
2022/07/08 00:18:39;;;;;;;;;;;;;;;;;;350376;28;931;-81
2022/07/08 00:18:49;;;;;;;;;;;;;;;;;;350404;28;809;-81
2022/07/08 00:19:00;;;;;;;;;;;;;;;;;;350410;28;887;-81
2022/07/08 00:19:14;;;;;;;;;;;;;;;;;;350312;28;793;-81
2022/07/08 00:19:25;;;;;;;;;;;;;;;;;;350264;28;826;-81
2022/07/08 00:19:35;;;;;;;;;;;;;;;;;;350281;28;924;-81
2022/07/08 00:19:46;;;;;;;;;;;;;;;;;;350189;28;1350;-81
2022/07/08 00:19:56;;;;;;;;;;;;;;;;;;350331;28;860;-81
2022/07/08 00:20:06;;;;;;;;;;;;;;;;;;350335;28;952;-81
2022/07/08 00:20:17;;;;;;;;;;;;;;;;;;349967;28;1544;-81
2022/07/08 00:20:27;;;;;;;;;;;;;;;;;;350270;28;928;-81
2022/07/08 00:20:38;;;;;;;;;;;;;;;;;;350198;28;912;-81
2022/07/08 00:20:48;;;;;;;;;;;;;;;;;;350295;28;924;-81
2022/07/08 00:20:58;;;;;;;;;;;;;;;;;;350335;28;782;-81
2022/07/08 00:21:09;;;;;;;;;;;;;;;;;;350338;28;940;-81
2022/07/08 00:21:19;;;;;;;;;;;;;;;;;;350424;28;920;-81
2022/07/08 00:21:29;;;;;;;;;;;;;;;;;;350402;27;793;-81
2022/07/08 00:21:40;;;;;;;;;;;;;;;;;;350385;28;971;-80
2022/07/08 00:21:50;;;;;;;;;;;;;;;;;;350362;28;1015;-81
2022/07/08 00:22:00;;;;;;;;;;;;;;;;;;350379;28;821;-81
2022/07/08 00:22:10;;;;;;;;;;;;;;;;;;350384;28;829;-81
2022/07/08 00:22:21;;;;;;;;;;;;;;;;;;350489;28;832;-81
2022/07/08 00:22:31;;;;;;;;;;;;;;;;;;350348;28;959;-81
2022/07/08 00:22:41;;;;;;;;;;;;;;;;;;350340;28;932;-81
2022/07/08 00:22:51;;;;;;;;;;;;;;;;;;350427;28;983;-81
2022/07/08 00:23:02;;;;;;;;;;;;;;;;;;350378;28;984;-81
2022/07/08 00:23:12;;;;;;;;;;;;;;;;;;350350;28;940;-81
2022/07/08 00:23:22;;;;;;;;;;;;;;;;;;350431;28;980;-81
2022/07/08 00:23:32;;;;;;;;;;;;;;;;;;350369;28;988;-81
2022/07/08 00:23:43;;;;;;;;;;;;;;;;;;350374;28;907;-81
2022/07/08 00:23:53;;;;;;;;;;;;;;;;;;350404;28;924;-81
2022/07/08 00:24:03;;;;;;;;;;;;;;;;;;350399;28;940;-81
2022/07/08 00:24:14;;;;;;;;;;;;;;;;;;350263;28;994;-81
2022/07/08 00:24:24;;;;;;;;;;;;;;;;;;350428;28;802;-81
2022/07/08 00:24:34;;;;;;;;;;;;;;;;;;350362;28;826;-81
2022/07/08 00:24:45;;;;;;;;;;;;;;;;;;350270;28;1188;-81
2022/07/08 00:24:56;;;;;;;;;;;;;;;;;;350423;27;921;-81
2022/07/08 00:25:06;;;;;;;;;;;;;;;;;;350447;28;778;-81
2022/07/08 00:25:17;;;;;;;;;;;;;;;;;;350379;28;879;-81
2022/07/08 00:25:27;;;;;;;;;;;;;;;;;;350443;28;892;-81
2022/07/08 00:25:38;;;;;;;;;;;;;;;;;;350394;28;894;-81
2022/07/08 00:25:49;;;;;;;;;;;;;;;;;;350338;28;900;-81
2022/07/08 00:25:59;;;;;;;;;;;;;;;;;;350416;28;833;-81
2022/07/08 00:26:10;;;;;;;;;;;;;;;;;;350438;28;798;-81
2022/07/08 00:26:20;;;;;;;;;;;;;;;;;;350383;28;786;-80
2022/07/08 00:26:31;;;;;;;;;;;;;;;;;;350424;28;868;-81
2022/07/08 00:26:41;;;;;;;;;;;;;;;;;;350374;28;877;-81
2022/07/08 00:26:52;;;;;;;;;;;;;;;;;;350344;28;774;-81
2022/07/08 00:27:03;;;;;;;;;;;;;;;;;;350448;28;849;-81
2022/07/08 00:27:13;;;;;;;;;;;;;;;;;;350408;27;833;-81
2022/07/08 00:27:23;;;;;;;;;;;;;;;;;;349717;28;1813;-81
2022/07/08 00:27:34;;;;;;;;;;;;;;;;;;350106;28;1752;-81
2022/07/08 00:27:45;;;;;;;;;;;;;;;;;;350418;28;872;-81
2022/07/08 00:27:55;;;;;;;;;;;;;;;;;;350379;28;916;-81
2022/07/08 00:28:05;;;;;;;;;;;;;;;;;;350361;28;801;-81
2022/07/08 00:28:16;;;;;;;;;;;;;;;;;;350469;28;789;-81
2022/07/08 00:28:26;;;;;;;;;;;;;;;;;;350399;28;833;-81
2022/07/08 00:28:37;;;;;;;;;;;;;;;;;;350394;28;829;-81
2022/07/08 00:28:47;;;;;;;;;;;;;;;;;;350247;28;797;-81
2022/07/08 00:28:58;;;;;;;;;;;;;;;;;;350415;28;912;-81
2022/07/08 00:29:08;;;;;;;;;;;;;;;;;;350441;28;782;-81
2022/07/08 00:29:19;;;;;;;;;;;;;;;;;;350430;27;793;-81
2022/07/08 00:29:29;;;;;;;;;;;;;;;;;;350350;28;880;-81
2022/07/08 00:29:39;;;;;;;;;;;;;;;;;;349596;28;1784;-81
2022/07/08 00:29:50;;;;;;;;;;;;;;;;;;348972;28;829;-81
2022/07/08 00:30:00;;;;;;;;;;;;;;;;;;349018;28;916;-81
2022/07/08 00:30:12;;;;;;;;;;;;;;;;;;348994;28;821;-81
2022/07/08 00:30:22;;;;;;;;;;;;;;;;;;349055;28;801;-81
2022/07/08 00:30:32;;;;;;;;;;;;;;;;;;348968;28;948;-81
2022/07/08 00:30:43;;;;;;;;;;;;;;;;;;349002;28;794;-81
2022/07/08 00:30:53;;;;;;;;;;;;;;;;;;348911;28;916;-81
2022/07/08 00:31:04;;;;;;;;;;;;;;;;;;349038;28;797;-82
2022/07/08 00:31:14;;;;;;;;;;;;;;;;;;349021;28;850;-81
2022/07/08 00:31:25;;;;;;;;;;;;;;;;;;348984;28;865;-81
2022/07/08 00:31:35;;;;;;;;;;;;;;;;;;348998;28;790;-81
2022/07/08 00:31:45;;;;;;;;;;;;;;;;;;348915;28;1047;-81
2022/07/08 00:31:56;;;;;;;;;;;;;;;;;;349048;28;912;-81
2022/07/08 00:32:06;;;;;;;;;;;;;;;;;;348991;28;904;-81
2022/07/08 00:32:17;;;;;;;;;;;;;;;;;;348971;28;924;-81
2022/07/08 00:32:28;;;;;;;;;;;;;;;;;;349076;28;873;-81
2022/07/08 00:32:38;;;;;;;;;;;;;;;;;;348978;28;1062;-81
2022/07/08 00:32:48;;;;;;;;;;;;;;;;;;348947;28;978;-81
2022/07/08 00:32:59;;;;;;;;;;;;;;;;;;348948;28;925;-81
2022/07/08 00:33:09;;;;;;;;;;;;;;;;;;349004;28;1016;-81
2022/07/08 00:33:19;;;;;;;;;;;;;;;;;;349041;28;849;-81
2022/07/08 00:33:30;;;;;;;;;;;;;;;;;;348972;28;936;-81
2022/07/08 00:33:40;;;;;;;;;;;;;;;;;;349031;28;968;-82
2022/07/08 00:33:50;;;;;;;;;;;;;;;;;;349037;28;798;-81
2022/07/08 00:34:00;;;;;;;;;;;;;;;;;;348957;28;1117;-81
2022/07/08 00:34:11;;;;;;;;;;;;;;;;;;349044;28;949;-81
2022/07/08 00:34:21;;;;;;;;;;;;;;;;;;349060;28;798;-81
2022/07/08 00:34:31;;;;;;;;;;;;;;;;;;348985;28;822;-81
2022/07/08 00:34:41;;;;;;;;;;;;;;;;;;349019;28;933;-81
2022/07/08 00:34:52;;;;;;;;;;;;;;;;;;349062;28;783;-81
2022/07/08 00:35:02;;;;;;;;;;;;;;;;;;348901;28;916;-81
2022/07/08 00:35:12;;;;;;;;;;;;;;;;;;349008;28;865;-81
2022/07/08 00:35:23;;;;;;;;;;;;;;;;;;349040;28;936;-81
2022/07/08 00:35:33;;;;;;;;;;;;;;;;;;348947;28;948;-81
2022/07/08 00:35:43;;;;;;;;;;;;;;;;;;349014;28;941;-81
2022/07/08 00:35:53;;;;;;;;;;;;;;;;;;349017;28;1003;-81
2022/07/08 00:36:04;;;;;;;;;;;;;;;;;;348923;28;968;-81
2022/07/08 00:36:14;;;;;;;;;;;;;;;;;;349019;28;928;-81
2022/07/08 00:36:25;;;;;;;;;;;;;;;;;;349022;28;937;-81
2022/07/08 00:36:35;;;;;;;;;;;;;;;;;;348969;28;936;-81
2022/07/08 00:36:46;;;;;;;;;;;;;;;;;;348996;28;957;-81
2022/07/08 00:36:56;;;;;;;;;;;;;;;;;;349056;28;770;-81
2022/07/08 00:37:06;;;;;;;;;;;;;;;;;;348850;28;1003;-81
2022/07/08 00:37:17;;;;;;;;;;;;;;;;;;349100;28;893;-81
2022/07/08 00:37:27;;;;;;;;;;;;;;;;;;348985;28;945;-81
2022/07/08 00:37:38;;;;;;;;;;;;;;;;;;349007;28;887;-81
2022/07/08 00:37:48;;;;;;;;;;;;;;;;;;349042;28;932;-81
2022/07/08 00:37:58;;;;;;;;;;;;;;;;;;348981;28;936;-81
2022/07/08 00:38:08;;;;;;;;;;;;;;;;;;349023;28;1668;-81
2022/07/08 00:38:19;;;;;;;;;;;;;;;;;;349026;28;845;-81
2022/07/08 00:38:30;;;;;;;;;;;;;;;;;;348915;28;1926;-81
2022/07/08 00:38:40;;;;;;;;;;;;;;;;;;348971;28;980;-81
2022/07/08 00:38:50;;;;;;;;;;;;;;;;;;349004;28;862;-81
2022/07/08 00:39:00;;;;;;;;;;;;;;;;;;348970;28;980;-81
2022/07/08 00:39:11;;;;;;;;;;;;;;;;;;348935;28;940;-81
2022/07/08 00:39:21;;;;;;;;;;;;;;;;;;349047;28;964;-81
2022/07/08 00:39:32;;;;;;;;;;;;;;;;;;348991;28;880;-81
2022/07/08 00:39:42;;;;;;;;;;;;;;;;;;349008;28;854;-81
2022/07/08 00:39:52;;;;;;;;;;;;;;;;;;349012;28;912;-81
2022/07/08 00:40:03;;;;;;;;;;;;;;;;;;349018;28;944;-81
2022/07/08 00:40:13;;;;;;;;;;;;;;;;;;348886;28;1312;-81
2022/07/08 00:40:23;;;;;;;;;;;;;;;;;;349019;28;940;-81
2022/07/08 00:40:35;;;;;;;;;;;;;;;;;;348940;28;1000;-81
2022/07/08 00:40:45;;;;;;;;;;;;;;;;;;348968;28;948;-81
2022/07/08 00:40:55;;;;;;;;;;;;;;;;;;348998;28;980;-81
2022/07/08 00:41:05;;;;;;;;;;;;;;;;;;349033;28;853;-81
2022/07/08 00:41:16;;;;;;;;;;;;;;;;;;348894;28;987;-81
2022/07/08 00:41:26;;;;;;;;;;;;;;;;;;348987;28;1019;-81
2022/07/08 00:41:36;;;;;;;;;;;;;;;;;;349055;28;794;-81
2022/07/08 00:41:46;;;;;;;;;;;;;;;;;;348886;28;995;-81
2022/07/08 00:41:57;;;;;;;;;;;;;;;;;;349030;28;964;-81
2022/07/08 00:42:07;;;;;;;;;;;;;;;;;;349006;28;987;-82
2022/07/08 00:42:17;;;;;;;;;;;;;;;;;;348997;28;954;-81
2022/07/08 00:42:27;;;;;;;;;;;;;;;;;;349011;28;940;-81
2022/07/08 00:42:38;;;;;;;;;;;;;;;;;;349021;28;790;-81
2022/07/08 00:42:48;;;;;;;;;;;;;;;;;;349024;28;1352;-81
2022/07/08 00:42:59;;;;;;;;;;;;;;;;;;348972;28;975;-81
2022/07/08 00:43:23;;;;;;;;;;;;;;;;;;349013;28;1191;-81
2022/07/08 00:43:34;;;;;;;;;;;;;;;;;;350387;28;889;-81
2022/07/08 00:43:47;;;;;;;;;;;;;;;;;;350386;28;873;-81
2022/07/08 00:43:57;;;;;;;;;;;;;;;;;;350400;28;920;-81
2022/07/08 00:44:07;;;;;;;;;;;;;;;;;;350454;28;813;-81
2022/07/08 00:44:18;;;;;;;;;;;;;;;;;;350407;28;848;-81
2022/07/08 00:44:29;;;;;;;;;;;;;;;;;;349327;28;1769;-81
2022/07/08 00:44:39;;;;;;;;;;;;;;;;;;349045;28;921;-81
2022/07/08 00:44:50;;;;;;;;;;;;;;;;;;349078;28;841;-81
2022/07/08 00:45:00;;;;;;;;;;;;;;;;;;349030;28;837;-81
2022/07/08 00:45:11;;;;;;;;;;;;;;;;;;348941;28;899;-81
2022/07/08 00:45:21;;;;;;;;;;;;;;;;;;349008;28;797;-81
2022/07/08 00:45:32;;;;;;;;;;;;;;;;;;349027;28;822;-81
2022/07/08 00:45:43;;;;;;;;;;;;;;;;;;349035;28;1002;-81
2022/07/08 00:45:54;;;;;;;;;;;;;;;;;;348995;28;905;-81
2022/07/08 00:46:04;;;;;;;;;;;;;;;;;;349058;28;833;-81
2022/07/08 00:46:16;;;;;;;;;;;;;;;;;;349003;28;802;-81
2022/07/08 00:46:26;;;;;;;;;;;;;;;;;;348774;28;1723;-81
2022/07/08 00:46:37;;;;;;;;;;;;;;;;;;350248;28;870;-81
2022/07/08 00:46:47;;;;;;;;;;;;;;;;;;350409;28;825;-81
2022/07/08 00:46:58;;;;;;;;;;;;;;;;;;350346;28;880;-81
2022/07/08 00:47:08;;;;;;;;;;;;;;;;;;350453;28;845;-81
2022/07/08 00:47:19;;;;;;;;;;;;;;;;;;350357;28;805;-81
2022/07/08 00:47:30;;;;;;;;;;;;;;;;;;350364;28;880;-81
2022/07/08 00:47:40;;;;;;;;;;;;;;;;;;350428;28;762;-81
2022/07/08 00:47:50;;;;;;;;;;;;;;;;;;348924;28;1503;-81
2022/07/08 00:48:01;;;;;;;;;;;;;;;;;;348963;28;892;-81
2022/07/08 00:48:11;;;;;;;;;;;;;;;;;;348920;28;1067;-81
2022/07/08 00:48:22;;;;;;;;;;;;;;;;;;349045;28;841;-81
2022/07/08 00:48:33;;;;;;;;;;;;;;;;;;349020;28;794;-81
2022/07/08 00:48:43;;;;;;;;;;;;;;;;;;348963;28;796;-81
2022/07/08 00:48:54;;;;;;;;;;;;;;;;;;349027;28;790;-81
2022/07/08 00:49:04;;;;;;;;;;;;;;;;;;349031;28;833;-81
2022/07/08 00:49:14;;;;;;;;;;;;;;;;;;348964;28;996;-81
2022/07/08 00:49:25;;;;;;;;;;;;;;;;;;349001;28;834;-81
2022/07/08 00:49:35;;;;;;;;;;;;;;;;;;348954;28;832;-81
2022/07/08 00:49:46;;;;;;;;;;;;;;;;;;349038;28;913;-81
2022/07/08 00:49:56;;;;;;;;;;;;;;;;;;349038;28;888;-81
2022/07/08 00:50:07;;;;;;;;;;;;;;;;;;349008;28;877;-81
2022/07/08 00:50:18;;;;;;;;;;;;;;;;;;349802;28;1465;-81
2022/07/08 00:50:29;;;;;;;;;;;;;;;;;;350397;28;887;-81
2022/07/08 00:50:39;;;;;;;;;;;;;;;;;;350381;28;798;-81
2022/07/08 00:50:50;;;;;;;;;;;;;;;;;;350360;28;826;-81
2022/07/08 00:51:03;;;;;;;;;;;;;;;;;;350294;28;1117;-81
2022/07/08 00:51:16;;;;;;;;;;;;;;;;;;350376;28;877;-81
2022/07/08 00:51:27;;;;;;;;;;;;;;;;;;350429;28;797;-81
2022/07/08 00:51:38;;;;;;;;;;;;;;;;;;350311;28;849;-81
2022/07/08 00:51:48;;;;;;;;;;;;;;;;;;350407;28;971;-81
2022/07/08 00:51:59;;;;;;;;;;;;;;;;;;350354;28;1375;-81
2022/07/08 00:52:09;;;;;;;;;;;;;;;;;;350423;28;929;-81
2022/07/08 00:52:20;;;;;;;;;;;;;;;;;;350290;28;1020;-81
2022/07/08 00:52:31;;;;;;;;;;;;;;;;;;350404;28;822;-81
2022/07/08 00:52:41;;;;;;;;;;;;;;;;;;350411;28;980;-81
2022/07/08 00:52:51;;;;;;;;;;;;;;;;;;350402;28;953;-81
2022/07/08 00:53:02;;;;;;;;;;;;;;;;;;350322;28;924;-81
2022/07/08 00:53:12;;;;;;;;;;;;;;;;;;350408;28;940;-81
2022/07/08 00:53:22;;;;;;;;;;;;;;;;;;350373;28;975;-81
2022/07/08 00:53:33;;;;;;;;;;;;;;;;;;350492;28;799;-81
2022/07/08 00:53:45;;;;;;;;;;;;;;;;;;350300;28;912;-81
2022/07/08 00:53:55;;;;;;;;;;;;;;;;;;350423;28;940;-81
2022/07/08 00:54:06;;;;;;;;;;;;;;;;;;350374;28;1008;-81
2022/07/08 00:54:17;;;;;;;;;;;;;;;;;;350424;27;794;-81
2022/07/08 00:54:28;;;;;;;;;;;;;;;;;;350341;28;964;-81
2022/07/08 00:54:38;;;;;;;;;;;;;;;;;;350359;28;932;-81
2022/07/08 00:54:48;;;;;;;;;;;;;;;;;;350401;28;924;-81
2022/07/08 00:55:00;;;;;;;;;;;;;;;;;;350390;28;963;-81
2022/07/08 00:55:10;;;;;;;;;;;;;;;;;;350364;28;936;-81
2022/07/08 00:55:21;;;;;;;;;;;;;;;;;;350347;28;957;-81
2022/07/08 00:55:31;;;;;;;;;;;;;;;;;;350435;28;971;-81
2022/07/08 00:55:41;;;;;;;;;;;;;;;;;;350367;28;932;-81
2022/07/08 00:55:52;;;;;;;;;;;;;;;;;;350317;28;916;-81
2022/07/08 00:56:04;;;;;;;;;;;;;;;;;;350395;28;834;-81
2022/07/08 00:56:14;;;;;;;;;;;;;;;;;;350460;28;794;-81
2022/07/08 00:56:25;;;;;;;;;;;;;;;;;;350429;28;790;-81
2022/07/08 00:56:36;;;;;;;;;;;;;;;;;;350362;28;865;-81
2022/07/08 00:56:48;;;;;;;;;;;;;;;;;;350426;28;794;-81
2022/07/08 00:56:59;;;;;;;;;;;;;;;;;;350416;28;880;-81
2022/07/08 00:57:10;;;;;;;;;;;;;;;;;;350338;28;876;-81
2022/07/08 00:57:21;;;;;;;;;;;;;;;;;;350438;28;841;-81
2022/07/08 00:57:32;;;;;;;;;;;;;;;;;;350395;27;913;-81
2022/07/08 00:57:42;;;;;;;;;;;;;;;;;;350382;28;838;-81
2022/07/08 00:57:53;;;;;;;;;;;;;;;;;;350362;28;798;-81
2022/07/08 00:58:04;;;;;;;;;;;;;;;;;;350330;28;814;-81
2022/07/08 00:58:14;;;;;;;;;;;;;;;;;;350392;28;833;-81
2022/07/08 00:58:26;;;;;;;;;;;;;;;;;;350369;28;873;-81
2022/07/08 00:58:36;;;;;;;;;;;;;;;;;;350309;28;1971;-81
2022/07/08 00:58:48;;;;;;;;;;;;;;;;;;350357;28;926;-81
2022/07/08 00:58:59;;;;;;;;;;;;;;;;;;350331;28;833;-81
2022/07/08 00:59:09;;;;;;;;;;;;;;;;;;350406;28;774;-81
2022/07/08 00:59:20;;;;;;;;;;;;;;;;;;350418;28;1000;-81
2022/07/08 00:59:30;;;;;;;;;;;;;;;;;;350375;28;785;-81
2022/07/08 00:59:42;;;;;;;;;;;;;;;;;;350398;28;904;-81
2022/07/08 00:59:54;;;;;;;;;;;;;;;;;;350325;28;884;-81
2022/07/08 01:00:05;;;;;;;;;;;;;;;;;;350358;28;928;-81
2022/07/08 01:00:16;;;;;;;;;;;;;;;;;;350425;28;839;-81
2022/07/08 01:00:26;;;;;;;;;;;;;;;;;;350342;28;817;-81
2022/07/08 01:00:37;;;;;;;;;;;;;;;;;;350400;28;782;-81
2022/07/08 01:00:47;;;;;;;;;;;;;;;;;;350328;28;1277;-81
2022/07/08 01:00:58;;;;;;;;;;;;;;;;;;350386;27;844;-81
2022/07/08 01:01:09;;;;;;;;;;;;;;;;;;350336;28;1160;-81
2022/07/08 01:01:21;;;;;;;;;;;;;;;;;;350409;28;872;-81
2022/07/08 01:01:31;;;;;;;;;;;;;;;;;;350377;28;940;-81
2022/07/08 01:01:41;;;;;;;;;;;;;;;;;;350344;28;840;-81
2022/07/08 01:01:52;;;;;;;;;;;;;;;;;;350410;28;928;-82
2022/07/08 01:02:04;;;;;;;;;;;;;;;;;;350298;28;1063;-81
2022/07/08 01:02:15;;;;;;;;;;;;;;;;;;350406;28;861;-81
2022/07/08 01:02:26;;;;;;;;;;;;;;;;;;350385;28;782;-81
2022/07/08 01:02:37;;;;;;;;;;;;;;;;;;348622;28;1792;-81
2022/07/08 01:02:48;;;;;;;;;;;;;;;;;;350386;28;829;-81
2022/07/08 01:02:59;;;;;;;;;;;;;;;;;;350404;28;889;-81
2022/07/08 01:03:10;;;;;;;;;;;;;;;;;;350404;28;841;-81
2022/07/08 01:03:21;;;;;;;;;;;;;;;;;;350367;28;808;-81
2022/07/08 01:03:31;;;;;;;;;;;;;;;;;;350411;28;828;-81
2022/07/08 01:03:43;;;;;;;;;;;;;;;;;;350389;28;857;-81
2022/07/08 01:03:54;;;;;;;;;;;;;;;;;;350404;28;790;-81
2022/07/08 01:04:04;;;;;;;;;;;;;;;;;;350383;28;871;-81
2022/07/08 01:04:14;;;;;;;;;;;;;;;;;;350366;28;885;-81
2022/07/08 01:04:24;;;;;;;;;;;;;;;;;;350339;28;988;-81
2022/07/08 01:04:35;;;;;;;;;;;;;;;;;;350321;28;1004;-81
2022/07/08 01:04:45;;;;;;;;;;;;;;;;;;349737;28;1872;-81
2022/07/08 01:04:56;;;;;;;;;;;;;;;;;;348938;28;912;-81
2022/07/08 01:05:08;;;;;;;;;;;;;;;;;;348993;28;972;-81
2022/07/08 01:05:18;;;;;;;;;;;;;;;;;;348964;28;1100;-81
2022/07/08 01:05:28;;;;;;;;;;;;;;;;;;348981;28;965;-81
2022/07/08 01:05:38;;;;;;;;;;;;;;;;;;348972;28;857;-81
2022/07/08 01:05:48;;;;;;;;;;;;;;;;;;348992;28;921;-81
2022/07/08 01:05:59;;;;;;;;;;;;;;;;;;348975;28;984;-81
2022/07/08 01:06:09;;;;;;;;;;;;;;;;;;348962;28;952;-81
2022/07/08 01:06:19;;;;;;;;;;;;;;;;;;348993;28;921;-81
2022/07/08 01:06:30;;;;;;;;;;;;;;;;;;349407;28;1308;-81
2022/07/08 01:06:41;;;;;;;;;;;;;;;;;;349544;28;1760;-82
2022/07/08 01:06:51;;;;;;;;;;;;;;;;;;349881;28;1569;-81
2022/07/08 01:07:01;;;;;;;;;;;;;;;;;;350097;28;971;-81
2022/07/08 01:07:11;;;;;;;;;;;;;;;;;;350370;28;972;-81
2022/07/08 01:07:22;;;;;;;;;;;;;;;;;;350333;28;972;-81
2022/07/08 01:07:32;;;;;;;;;;;;;;;;;;350413;28;868;-81
2022/07/08 01:07:43;;;;;;;;;;;;;;;;;;350362;28;912;-81
2022/07/08 01:07:53;;;;;;;;;;;;;;;;;;350392;28;924;-81
2022/07/08 01:08:04;;;;;;;;;;;;;;;;;;350362;28;992;-81
2022/07/08 01:08:14;;;;;;;;;;;;;;;;;;350327;28;853;-81
2022/07/08 01:08:25;;;;;;;;;;;;;;;;;;350344;28;983;-81
2022/07/08 01:08:35;;;;;;;;;;;;;;;;;;350386;28;960;-81
2022/07/08 01:08:46;;;;;;;;;;;;;;;;;;350372;28;932;-81
2022/07/08 01:08:56;;;;;;;;;;;;;;;;;;350392;28;853;-82
2022/07/08 01:09:06;;;;;;;;;;;;;;;;;;350304;28;1120;-81
2022/07/08 01:09:16;;;;;;;;;;;;;;;;;;350416;28;813;-81
2022/07/08 01:09:27;;;;;;;;;;;;;;;;;;350386;28;813;-81
2022/07/08 01:09:37;;;;;;;;;;;;;;;;;;350378;28;818;-81
2022/07/08 01:09:47;;;;;;;;;;;;;;;;;;350399;28;912;-81
2022/07/08 01:09:59;;;;;;;;;;;;;;;;;;350290;28;1023;-81
2022/07/08 01:10:09;;;;;;;;;;;;;;;;;;350415;28;937;-81
2022/07/08 01:10:20;;;;;;;;;;;;;;;;;;350321;28;941;-80
2022/07/08 01:10:30;;;;;;;;;;;;;;;;;;350319;28;1040;-81
2022/07/08 01:10:40;;;;;;;;;;;;;;;;;;350347;28;921;-81
2022/07/08 01:10:51;;;;;;;;;;;;;;;;;;350371;28;806;-81
2022/07/08 01:11:02;;;;;;;;;;;;;;;;;;350399;28;987;-81
2022/07/08 01:11:12;;;;;;;;;;;;;;;;;;350385;28;766;-81
2022/07/08 01:11:22;;;;;;;;;;;;;;;;;;350389;28;861;-81
2022/07/08 01:11:33;;;;;;;;;;;;;;;;;;350394;28;1008;-81
2022/07/08 01:11:45;;;;;;;;;;;;;;;;;;350338;28;895;-81
2022/07/08 01:11:56;;;;;;;;;;;;;;;;;;350400;28;778;-81
2022/07/08 01:12:06;;;;;;;;;;;;;;;;;;350383;28;936;-81
2022/07/08 01:12:17;;;;;;;;;;;;;;;;;;350433;28;912;-81
2022/07/08 01:12:28;;;;;;;;;;;;;;;;;;350301;28;956;-81
2022/07/08 01:12:38;;;;;;;;;;;;;;;;;;350400;28;928;-81
2022/07/08 01:12:49;;;;;;;;;;;;;;;;;;350355;28;975;-81
2022/07/08 01:12:59;;;;;;;;;;;;;;;;;;350382;28;925;-81
2022/07/08 01:13:09;;;;;;;;;;;;;;;;;;350414;28;912;-81
2022/07/08 01:13:20;;;;;;;;;;;;;;;;;;350367;28;905;-81
2022/07/08 01:13:30;;;;;;;;;;;;;;;;;;350313;28;830;-81
2022/07/08 01:13:41;;;;;;;;;;;;;;;;;;350368;28;897;-81
2022/07/08 01:13:51;;;;;;;;;;;;;;;;;;350353;28;842;-81
2022/07/08 01:14:03;;;;;;;;;;;;;;;;;;350344;28;915;-81
2022/07/08 01:14:16;;;;;;;;;;;;;;;;;;350391;28;1027;-81
2022/07/08 01:14:27;;;;;;;;;;;;;;;;;;350399;28;933;-81
2022/07/08 01:14:37;;;;;;;;;;;;;;;;;;350381;28;865;-81
2022/07/08 01:14:47;;;;;;;;;;;;;;;;;;350144;28;976;-81
2022/07/08 01:14:57;;;;;;;;;;;;;;;;;;350413;28;873;-81
2022/07/08 01:15:08;;;;;;;;;;;;;;;;;;350413;28;782;-81
2022/07/08 01:15:21;;;;;;;;;;;;;;;;;;350288;28;1342;-81
2022/07/08 01:15:32;;;;;;;;;;;;;;;;;;350366;28;875;-81
2022/07/08 01:15:43;;;;;;;;;;;;;;;;;;350417;28;993;-81
2022/07/08 01:15:53;;;;;;;;;;;;;;;;;;350309;28;777;-81
2022/07/08 01:16:04;;;;;;;;;;;;;;;;;;350371;28;806;-81
2022/07/08 01:16:15;;;;;;;;;;;;;;;;;;350346;27;853;-80